createdAt,value
2023-04-16T00:00:58.282Z,8.91
2023-04-16T00:03:25.095Z,9.05
2023-04-16T00:05:51.705Z,8.88
2023-04-16T00:08:18.060Z,8.88
2023-04-16T00:10:44.552Z,8.62
2023-04-16T00:13:10.922Z,8.79
2023-04-16T00:15:37.346Z,8.80
2023-04-16T00:18:03.792Z,8.67
2023-04-16T00:20:30.309Z,8.75
2023-04-16T00:22:56.746Z,8.78
2023-04-16T00:25:23.280Z,8.71
2023-04-16T00:27:49.701Z,8.86
2023-04-16T00:30:16.599Z,8.88
2023-04-16T00:32:43.036Z,8.69
2023-04-16T00:35:09.623Z,8.81
2023-04-16T00:37:36.003Z,8.88
2023-04-16T00:40:02.395Z,8.82
2023-04-16T00:42:28.761Z,8.72
2023-04-16T00:44:55.212Z,8.74
2023-04-16T00:47:21.892Z,8.72
2023-04-16T00:49:49.056Z,8.74
2023-04-16T00:52:15.703Z,8.80
2023-04-16T00:54:42.183Z,8.51
2023-04-16T00:57:09.062Z,8.78
2023-04-16T00:59:35.615Z,8.77
2023-04-16T01:02:02.165Z,8.85
2023-04-16T01:04:30.996Z,8.65
2023-04-16T01:06:57.537Z,8.60
2023-04-16T01:09:24.014Z,8.51
2023-04-16T01:11:50.480Z,8.65
2023-04-16T01:14:16.869Z,8.57
2023-04-16T01:16:43.257Z,8.49
2023-04-16T01:19:09.914Z,8.49
2023-04-16T01:21:36.469Z,8.80
2023-04-16T01:24:04.572Z,8.64
2023-04-16T01:26:31.507Z,8.74
2023-04-16T01:28:58.619Z,8.82
2023-04-16T01:31:25.295Z,8.85
2023-04-16T01:33:51.714Z,8.80
2023-04-16T01:36:18.238Z,8.93
2023-04-16T01:38:44.585Z,8.98
2023-04-16T01:41:10.949Z,8.88
2023-04-16T01:43:39.684Z,8.89
2023-04-16T01:46:39.969Z,8.80
2023-04-16T01:49:07.339Z,8.79
2023-04-16T01:51:33.961Z,8.87
2023-04-16T01:54:00.943Z,9.18
2023-04-16T01:56:27.388Z,9.09
2023-04-16T01:58:53.787Z,9.06
2023-04-16T02:01:20.393Z,9.21
2023-04-16T02:03:47.626Z,9.07
2023-04-16T02:06:14.832Z,9.07
2023-04-16T02:08:41.696Z,8.86
2023-04-16T02:11:08.234Z,8.70
2023-04-16T02:13:34.784Z,8.88
2023-04-16T02:16:01.204Z,8.99
2023-04-16T02:18:27.918Z,9.03
2023-04-16T02:20:54.331Z,8.95
2023-04-16T02:23:20.744Z,9.12
2023-04-16T02:25:47.904Z,9.04
2023-04-16T02:28:17.124Z,8.91
2023-04-16T02:30:43.873Z,9.01
2023-04-16T02:33:12.107Z,9.08
2023-04-16T02:35:39.680Z,9.11
2023-04-16T02:38:06.704Z,9.15
2023-04-16T02:40:33.163Z,9.22
2023-04-16T02:42:59.581Z,9.20
2023-04-16T02:45:26.041Z,9.28
2023-04-16T02:47:52.478Z,8.99
2023-04-16T02:50:19.159Z,9.03
2023-04-16T02:52:45.734Z,9.15
2023-04-16T02:55:12.225Z,9.11
2023-04-16T02:57:38.670Z,9.23
2023-04-16T03:00:05.693Z,9.21
2023-04-16T03:02:32.166Z,9.32
2023-04-16T03:04:58.661Z,9.33
2023-04-16T03:07:25.832Z,9.24
2023-04-16T03:09:52.304Z,9.32
2023-04-16T03:12:18.658Z,9.13
2023-04-16T03:14:45.198Z,9.34
2023-04-16T03:17:11.590Z,9.38
2023-04-16T03:19:37.988Z,9.14
2023-04-16T03:22:04.934Z,9.24
2023-04-16T03:24:32.219Z,9.22
2023-04-16T03:26:58.876Z,9.19
2023-04-16T03:29:26.761Z,9.07
2023-04-16T03:31:53.302Z,9.27
2023-04-16T03:34:19.661Z,9.35
2023-04-16T03:36:46.337Z,9.58
2023-04-16T03:39:12.771Z,9.52
2023-04-16T03:41:39.184Z,9.64
2023-04-16T03:44:05.737Z,9.55
2023-04-16T03:46:32.268Z,9.42
2023-04-16T03:48:58.680Z,9.40
2023-04-16T03:51:25.057Z,9.49
2023-04-16T03:53:51.565Z,9.55
2023-04-16T03:56:18.013Z,9.39
2023-04-16T03:58:44.389Z,9.66
2023-04-16T04:01:10.920Z,9.66
2023-04-16T04:03:37.495Z,9.51
2023-04-16T04:06:08.347Z,9.40
2023-04-16T04:08:34.898Z,9.39
2023-04-16T04:11:01.269Z,9.31
2023-04-16T04:13:27.696Z,9.32
2023-04-16T04:15:54.222Z,9.22
2023-04-16T04:18:20.694Z,9.34
2023-04-16T04:20:47.043Z,9.42
2023-04-16T04:23:13.439Z,9.19
2023-04-16T04:25:39.845Z,9.21
2023-04-16T04:28:06.207Z,9.21
2023-04-16T04:30:32.632Z,9.29
2023-04-16T04:32:59.012Z,9.34
2023-04-16T04:35:25.507Z,8.99
2023-04-16T04:37:51.918Z,9.17
2023-04-16T04:40:18.369Z,9.21
2023-04-16T04:42:44.742Z,9.19
2023-04-16T04:45:11.570Z,9.14
2023-04-16T04:47:37.960Z,9.14
2023-04-16T04:50:04.662Z,9.23
2023-04-16T04:52:31.182Z,9.09
2023-04-16T04:54:57.548Z,9.13
2023-04-16T04:57:23.916Z,8.98
2023-04-16T04:59:50.334Z,8.81
2023-04-16T05:02:16.792Z,9.10
2023-04-16T05:04:43.338Z,8.98
2023-04-16T05:07:09.753Z,8.89
2023-04-16T05:09:36.340Z,8.92
2023-04-16T05:12:03.466Z,8.89
2023-04-16T05:14:29.857Z,8.92
2023-04-16T05:16:56.470Z,8.88
2023-04-16T05:19:22.892Z,9.07
2023-04-16T05:21:49.360Z,9.15
2023-04-16T05:24:15.711Z,9.21
2023-04-16T05:26:42.115Z,9.22
2023-04-16T05:29:08.763Z,9.30
2023-04-16T05:31:35.359Z,9.14
2023-04-16T05:34:01.784Z,9.07
2023-04-16T05:36:28.192Z,8.92
2023-04-16T05:38:54.554Z,9.27
2023-04-16T05:41:21.101Z,9.11
2023-04-16T05:43:47.473Z,9.21
2023-04-16T05:46:13.889Z,9.25
2023-04-16T05:48:40.289Z,9.32
2023-04-16T05:51:06.742Z,9.16
2023-04-16T05:53:33.096Z,9.36
2023-04-16T05:55:59.443Z,9.37
2023-04-16T05:58:25.826Z,9.56
2023-04-16T06:00:52.303Z,9.67
2023-04-16T06:03:18.742Z,9.70
2023-04-16T06:05:45.245Z,9.53
2023-04-16T06:08:11.647Z,9.51
2023-04-16T06:10:38.068Z,9.75
2023-04-16T06:13:04.449Z,9.74
2023-04-16T06:15:30.816Z,9.83
2023-04-16T06:18:00.219Z,9.81
2023-04-16T06:20:27.315Z,9.81
2023-04-16T06:22:53.726Z,9.79
2023-04-16T06:25:20.108Z,9.72
2023-04-16T06:27:46.482Z,9.73
2023-04-16T06:30:14.140Z,9.71
2023-04-16T06:32:40.829Z,9.47
2023-04-16T06:35:07.751Z,9.75
2023-04-16T06:37:34.098Z,9.87
2023-04-16T06:40:00.551Z,9.78
2023-04-16T06:42:27.245Z,9.91
2023-04-16T06:44:53.818Z,10.04
2023-04-16T06:47:20.276Z,10.03
2023-04-16T06:49:46.981Z,9.98
2023-04-16T06:52:13.494Z,10.08
2023-04-16T06:54:39.954Z,9.91
2023-04-16T06:57:06.355Z,9.93
2023-04-16T06:59:32.718Z,9.89
2023-04-16T07:01:59.240Z,10.18
2023-04-16T07:04:25.938Z,10.15
2023-04-16T07:06:52.404Z,10.28
2023-04-16T07:09:18.819Z,10.06
2023-04-16T07:11:45.327Z,9.98
2023-04-16T07:14:11.860Z,10.05
2023-04-16T07:16:38.315Z,10.17
2023-04-16T07:19:04.711Z,10.28
2023-04-16T07:21:31.694Z,10.11
2023-04-16T07:23:58.032Z,10.32
2023-04-16T07:26:24.410Z,10.33
2023-04-16T07:28:50.806Z,10.27
2023-04-16T07:31:17.443Z,10.28
2023-04-16T07:33:44.004Z,10.30
2023-04-16T07:36:10.961Z,10.28
2023-04-16T07:38:37.360Z,10.25
2023-04-16T07:41:03.958Z,10.49
2023-04-16T07:43:30.406Z,10.59
2023-04-16T07:45:56.927Z,10.57
2023-04-16T07:48:23.433Z,10.37
2023-04-16T07:50:50.332Z,10.65
2023-04-16T07:53:16.772Z,10.70
2023-04-16T07:55:43.193Z,11.02
2023-04-16T07:58:09.694Z,10.99
2023-04-16T08:00:36.061Z,11.07
2023-04-16T08:03:02.613Z,11.07
2023-04-16T08:05:29.270Z,11.04
2023-04-16T08:07:55.968Z,11.25
2023-04-16T08:10:22.452Z,11.13
2023-04-16T08:12:48.911Z,11.33
2023-04-16T08:15:15.325Z,11.64
2023-04-16T08:17:41.765Z,11.80
2023-04-16T08:20:08.546Z,11.97
2023-04-16T08:22:34.932Z,12.51
2023-04-16T08:25:01.668Z,12.35
2023-04-16T08:27:28.020Z,12.57
2023-04-16T08:29:54.410Z,12.63
2023-04-16T08:32:20.880Z,12.84
2023-04-16T08:34:47.406Z,12.68
2023-04-16T08:37:13.783Z,13.05
2023-04-16T08:39:40.498Z,12.91
2023-04-16T08:42:30.607Z,12.84
2023-04-16T08:45:17.688Z,13.02
2023-04-16T08:47:46.914Z,12.83
2023-04-16T08:50:17.339Z,13.08
2023-04-16T08:52:51.113Z,13.56
2023-04-16T08:55:19.343Z,14.35
2023-04-16T08:57:53.765Z,14.63
2023-04-16T09:00:21.242Z,14.77
2023-04-16T09:02:48.773Z,14.84
2023-04-16T09:05:17.247Z,14.79
2023-04-16T09:07:48.003Z,15.08
2023-04-16T09:10:17.549Z,14.70
2023-04-16T09:12:44.576Z,14.69
2023-04-16T09:15:12.798Z,14.54
2023-04-16T09:17:39.889Z,14.50
2023-04-16T09:20:11.282Z,14.53
2023-04-16T09:22:39.994Z,14.78
2023-04-16T09:25:07.307Z,14.21
2023-04-16T09:27:33.812Z,14.69
2023-04-16T09:30:01.544Z,14.40
2023-04-16T09:32:29.130Z,14.74
2023-04-16T09:35:00.770Z,14.94
2023-04-16T09:37:31.048Z,14.62
2023-04-16T09:40:03.536Z,14.77
2023-04-16T09:42:36.149Z,15.01
2023-04-16T09:45:05.553Z,15.23
2023-04-16T09:47:43.603Z,15.47
2023-04-16T09:50:17.795Z,15.66
2023-04-16T09:52:50.340Z,15.81
2023-04-16T09:55:16.807Z,15.69
2023-04-16T09:57:43.192Z,15.74
2023-04-16T10:00:10.711Z,16.01
2023-04-16T10:02:42.013Z,15.63
2023-04-16T10:05:09.109Z,16.06
2023-04-16T10:07:36.993Z,16.35
2023-04-16T10:10:04.441Z,16.09
2023-04-16T10:12:32.710Z,15.92
2023-04-16T10:14:59.178Z,15.79
2023-04-16T10:17:26.421Z,16.06
2023-04-16T10:19:54.539Z,16.03
2023-04-16T10:22:21.026Z,15.85
2023-04-16T10:24:48.771Z,16.74
2023-04-16T10:27:16.580Z,16.90
2023-04-16T10:29:43.275Z,17.23
2023-04-16T10:32:10.332Z,17.33
2023-04-16T10:34:36.792Z,17.15
2023-04-16T10:37:03.199Z,17.10
2023-04-16T10:39:29.661Z,17.75
2023-04-16T10:42:12.766Z,17.38
2023-04-16T10:44:43.481Z,17.45
2023-04-16T10:47:12.928Z,17.42
2023-04-16T10:49:40.215Z,17.76
2023-04-16T10:52:14.914Z,18.27
2023-04-16T10:54:41.447Z,17.65
2023-04-16T10:57:16.060Z,17.76
2023-04-16T10:59:43.675Z,16.82
2023-04-16T11:02:14.793Z,16.70
2023-04-16T11:04:46.274Z,16.94
2023-04-16T11:07:16.393Z,16.83
2023-04-16T11:10:02.240Z,16.91
2023-04-16T11:12:34.363Z,16.98
2023-04-16T11:15:06.292Z,17.33
2023-04-16T11:17:38.053Z,17.31
2023-04-16T11:20:19.358Z,17.00
2023-04-16T11:22:48.587Z,16.86
2023-04-16T11:25:26.957Z,17.26
2023-04-16T11:27:53.832Z,16.89
2023-04-16T11:30:33.857Z,17.06
2023-04-16T11:33:09.711Z,17.00
2023-04-16T11:35:36.248Z,16.54
2023-04-16T11:38:02.642Z,17.23
2023-04-16T11:40:32.135Z,17.14
2023-04-16T11:43:27.827Z,17.08
2023-04-16T11:46:10.327Z,17.16
2023-04-16T11:48:51.611Z,17.08
2023-04-16T11:51:18.638Z,17.23
2023-04-16T11:53:46.937Z,17.66
2023-04-16T11:56:13.377Z,17.26
2023-04-16T11:58:43.148Z,17.58
2023-04-16T12:01:10.163Z,17.26
2023-04-16T12:03:44.248Z,17.02
2023-04-16T12:06:11.005Z,16.88
2023-04-16T12:08:37.508Z,16.72
2023-04-16T12:11:04.451Z,16.73
2023-04-16T12:13:30.968Z,16.84
2023-04-16T12:15:57.361Z,17.12
2023-04-16T12:18:26.886Z,16.58
2023-04-16T12:20:53.612Z,16.73
2023-04-16T12:23:34.219Z,17.00
2023-04-16T12:26:10.225Z,17.08
2023-04-16T12:28:40.741Z,17.11
2023-04-16T12:31:07.217Z,17.12
2023-04-16T12:33:33.676Z,16.88
2023-04-16T12:36:01.504Z,17.01
2023-04-16T12:38:28.580Z,17.04
2023-04-16T12:40:56.952Z,17.33
2023-04-16T12:43:23.942Z,17.24
2023-04-16T12:45:50.490Z,17.76
2023-04-16T12:48:16.953Z,17.76
2023-04-16T12:50:44.280Z,17.98
2023-04-16T12:53:11.458Z,17.49
2023-04-16T12:55:37.884Z,17.69
2023-04-16T12:58:04.281Z,17.92
2023-04-16T13:00:30.680Z,17.92
2023-04-16T13:02:57.249Z,17.29
2023-04-16T13:05:23.782Z,17.67
2023-04-16T13:07:50.209Z,17.74
2023-04-16T13:10:16.657Z,17.47
2023-04-16T13:12:43.123Z,18.02
2023-04-16T13:15:10.447Z,18.38
2023-04-16T13:17:36.939Z,17.89
2023-04-16T13:20:03.514Z,17.60
2023-04-16T13:22:30.131Z,17.77
2023-04-16T13:24:56.963Z,18.05
2023-04-16T13:27:23.343Z,17.72
2023-04-16T13:29:49.732Z,17.49
2023-04-16T13:32:16.446Z,17.05
2023-04-16T13:34:42.856Z,16.95
2023-04-16T13:37:09.238Z,17.01
2023-04-16T13:39:35.695Z,17.20
2023-04-16T13:42:02.656Z,16.83
2023-04-16T13:44:29.026Z,16.61
2023-04-16T13:46:56.144Z,16.73
2023-04-16T13:49:23.403Z,17.28
2023-04-16T13:51:49.854Z,17.00
2023-04-16T13:54:16.194Z,16.71
2023-04-16T13:56:42.689Z,17.08
2023-04-16T13:59:09.393Z,16.85
2023-04-16T14:01:35.873Z,16.80
2023-04-16T14:04:06.766Z,16.87
2023-04-16T14:06:34.740Z,16.85
2023-04-16T14:09:01.819Z,16.81
2023-04-16T14:11:28.464Z,16.74
2023-04-16T14:13:54.977Z,16.90
2023-04-16T14:16:21.523Z,17.19
2023-04-16T14:18:48.065Z,17.23
2023-04-16T14:21:14.444Z,17.33
2023-04-16T14:23:41.087Z,17.22
2023-04-16T14:26:07.583Z,17.39
2023-04-16T14:28:34.186Z,17.02
2023-04-16T14:31:00.526Z,17.37
2023-04-16T14:33:27.702Z,17.19
2023-04-16T14:35:54.744Z,17.26
2023-04-16T14:38:21.250Z,17.07
2023-04-16T14:40:48.473Z,17.07
2023-04-16T14:43:14.965Z,16.43
2023-04-16T14:45:41.695Z,17.06
2023-04-16T14:48:08.175Z,17.62
2023-04-16T14:50:37.883Z,17.48
2023-04-16T14:53:07.372Z,17.72
2023-04-16T14:55:33.780Z,17.54
2023-04-16T14:58:00.163Z,18.13
2023-04-16T15:00:27.316Z,17.54
2023-04-16T15:02:54.948Z,17.91
2023-04-16T15:05:22.206Z,17.50
2023-04-16T15:07:48.583Z,17.91
2023-04-16T15:10:15.045Z,18.30
2023-04-16T15:12:41.448Z,18.17
2023-04-16T15:15:08.706Z,17.66
2023-04-16T15:17:35.419Z,18.38
2023-04-16T15:20:01.990Z,17.79
2023-04-16T15:22:28.420Z,18.28
2023-04-16T15:24:54.790Z,17.68
2023-04-16T15:27:21.143Z,18.10
2023-04-16T15:29:49.289Z,18.21
2023-04-16T15:32:15.739Z,17.89
2023-04-16T15:34:42.144Z,17.33
2023-04-16T15:37:09.604Z,17.66
2023-04-16T15:39:36.036Z,17.30
2023-04-16T15:42:07.079Z,16.93
2023-04-16T15:44:34.327Z,17.72
2023-04-16T15:47:01.114Z,17.34
2023-04-16T15:49:27.523Z,16.85
2023-04-16T15:51:53.947Z,16.98
2023-04-16T15:54:20.331Z,16.93
2023-04-16T15:56:47.032Z,16.81
2023-04-16T15:59:13.639Z,16.85
2023-04-16T16:01:40.235Z,16.67
2023-04-16T16:04:07.979Z,16.97
2023-04-16T16:06:34.818Z,17.29
2023-04-16T16:09:01.716Z,16.50
2023-04-16T16:11:28.385Z,16.53
2023-04-16T16:13:54.881Z,15.99
2023-04-16T16:16:21.865Z,16.28
2023-04-16T16:18:48.666Z,15.86
2023-04-16T16:21:15.068Z,16.05
2023-04-16T16:23:41.468Z,16.43
2023-04-16T16:26:07.865Z,16.26
2023-04-16T16:28:37.489Z,16.43
2023-04-16T16:31:05.782Z,16.60
2023-04-16T16:33:32.204Z,16.47
2023-04-16T16:35:58.598Z,16.60
2023-04-16T16:38:25.006Z,16.50
2023-04-16T16:40:51.444Z,16.27
2023-04-16T16:43:17.846Z,16.12
2023-04-16T16:45:44.348Z,15.82
2023-04-16T16:48:10.697Z,15.48
2023-04-16T16:50:37.058Z,15.70
2023-04-16T16:53:03.704Z,15.58
2023-04-16T16:55:31.213Z,15.54
2023-04-16T16:57:58.383Z,15.51
2023-04-16T17:00:24.907Z,14.72
2023-04-16T17:02:51.994Z,14.81
2023-04-16T17:05:18.763Z,14.60
2023-04-16T17:07:45.815Z,14.76
2023-04-16T17:10:21.708Z,14.72
2023-04-16T17:12:49.517Z,14.70
2023-04-16T17:15:17.973Z,14.31
2023-04-16T17:17:45.646Z,14.41
2023-04-16T17:20:12.466Z,13.86
2023-04-16T17:22:40.187Z,13.97
2023-04-16T17:25:07.784Z,13.77
2023-04-16T17:27:34.406Z,13.37
2023-04-16T17:30:02.056Z,13.28
2023-04-16T17:32:29.760Z,13.26
2023-04-16T17:34:56.636Z,13.08
2023-04-16T17:37:23.479Z,12.93
2023-04-16T17:39:51.028Z,13.23
2023-04-16T17:42:17.531Z,13.04
2023-04-16T17:44:44.087Z,13.01
2023-04-16T17:47:10.778Z,12.88
2023-04-16T17:49:37.182Z,12.48
2023-04-16T17:52:03.691Z,12.52
2023-04-16T17:54:30.440Z,12.39
2023-04-16T17:56:57.578Z,12.35
2023-04-16T17:59:24.049Z,11.93
2023-04-16T18:01:50.578Z,12.07
2023-04-16T18:04:17.740Z,12.18
2023-04-16T18:06:44.556Z,12.33
2023-04-16T18:09:11.985Z,12.40
2023-04-16T18:11:38.440Z,12.18
2023-04-16T18:14:04.922Z,12.08
2023-04-16T18:16:31.386Z,11.94
2023-04-16T18:18:57.857Z,11.67
2023-04-16T18:21:24.357Z,11.64
2023-04-16T18:23:50.818Z,11.65
2023-04-16T18:26:20.546Z,11.53
2023-04-16T18:28:48.573Z,11.36
2023-04-16T18:31:15.047Z,11.10
2023-04-16T18:33:55.555Z,11.13
2023-04-16T18:36:22.560Z,11.10
2023-04-16T18:39:01.021Z,11.07
2023-04-16T18:41:29.506Z,11.05
2023-04-16T18:43:56.116Z,11.00
2023-04-16T18:46:22.590Z,10.96
2023-04-16T18:48:49.106Z,10.76
2023-04-16T18:51:16.494Z,10.73
2023-04-16T18:53:44.189Z,10.81
2023-04-16T18:56:11.602Z,10.86
2023-04-16T18:58:38.148Z,10.79
2023-04-16T19:01:06.100Z,10.80
2023-04-16T19:03:33.319Z,10.90
2023-04-16T19:06:00.097Z,10.97
2023-04-16T19:08:27.097Z,10.96
2023-04-16T19:10:53.465Z,10.89
2023-04-16T19:13:19.956Z,10.89
2023-04-16T19:15:46.380Z,10.84
2023-04-16T19:18:12.919Z,10.66
2023-04-16T19:20:39.545Z,10.58
2023-04-16T19:23:08.322Z,10.70
2023-04-16T19:25:37.367Z,10.71
2023-04-16T19:28:03.986Z,10.46
2023-04-16T19:30:30.953Z,10.74
2023-04-16T19:32:57.669Z,10.81
2023-04-16T19:35:24.264Z,10.89
2023-04-16T19:37:50.956Z,10.73
2023-04-16T19:40:17.391Z,10.63
2023-04-16T19:42:45.407Z,10.91
2023-04-16T19:45:11.934Z,10.71
2023-04-16T19:47:38.572Z,10.65
2023-04-16T19:50:05.778Z,10.65
2023-04-16T19:52:37.263Z,10.45
2023-04-16T19:55:03.954Z,10.56
2023-04-16T19:57:30.449Z,10.69
2023-04-16T19:59:57.055Z,10.58
2023-04-16T20:02:23.515Z,10.71
2023-04-16T20:04:50.725Z,10.58
2023-04-16T20:07:17.424Z,10.62
2023-04-16T20:09:43.820Z,10.51
2023-04-16T20:12:10.426Z,10.45
2023-04-16T20:14:36.836Z,10.58
2023-04-16T20:17:03.495Z,10.70
2023-04-16T20:19:33.295Z,10.50
2023-04-16T20:21:59.657Z,10.62
2023-04-16T20:24:26.509Z,10.75
2023-04-16T20:26:52.911Z,10.79
2023-04-16T20:29:19.378Z,10.53
2023-04-16T20:31:46.125Z,10.79
2023-04-16T20:34:12.794Z,10.52
2023-04-16T20:36:39.211Z,10.66
2023-04-16T20:39:07.187Z,10.50
2023-04-16T20:41:33.949Z,10.53
2023-04-16T20:44:05.185Z,10.45
2023-04-16T20:46:34.402Z,10.51
2023-04-16T20:49:01.138Z,10.50
2023-04-16T20:51:27.631Z,10.61
2023-04-16T20:53:54.094Z,10.65
2023-04-16T20:56:20.485Z,10.75
2023-04-16T20:58:46.845Z,10.54
2023-04-16T21:01:13.354Z,10.68
2023-04-16T21:03:39.873Z,10.52
2023-04-16T21:06:06.351Z,10.39
2023-04-16T21:08:32.780Z,10.50
2023-04-16T21:10:59.185Z,10.50
2023-04-16T21:13:25.569Z,10.51
2023-04-16T21:15:52.206Z,10.26
2023-04-16T21:18:18.630Z,10.42
2023-04-16T21:20:45.057Z,10.48
2023-04-16T21:23:11.608Z,10.65
2023-04-16T21:25:38.045Z,10.54
2023-04-16T21:28:04.925Z,10.39
2023-04-16T21:30:31.379Z,9.97
2023-04-16T21:32:57.800Z,10.09
2023-04-16T21:35:24.319Z,10.04
2023-04-16T21:37:50.736Z,10.28
2023-04-16T21:40:17.221Z,10.36
2023-04-16T21:42:44.424Z,10.30
2023-04-16T21:45:11.231Z,10.09
2023-04-16T21:47:38.269Z,10.19
2023-04-16T21:50:05.055Z,10.16
2023-04-16T21:52:32.814Z,10.09
2023-04-16T21:55:00.376Z,10.23
2023-04-16T21:57:26.858Z,10.18
2023-04-16T21:59:53.318Z,10.12
2023-04-16T22:02:19.786Z,10.15
2023-04-16T22:04:46.273Z,10.06
2023-04-16T22:07:12.724Z,10.09
2023-04-16T22:09:40.337Z,10.20
2023-04-16T22:12:07.066Z,10.44
2023-04-16T22:14:38.349Z,10.19
2023-04-16T22:17:05.673Z,9.92
2023-04-16T22:19:32.136Z,9.89
2023-04-16T22:21:58.575Z,10.08
2023-04-16T22:24:24.928Z,10.02
2023-04-16T22:26:51.291Z,10.24
2023-04-16T22:29:17.658Z,10.33
2023-04-16T22:31:44.135Z,10.23
2023-04-16T22:34:10.529Z,10.07
2023-04-16T22:36:36.906Z,10.00
2023-04-16T22:39:08.266Z,10.26
2023-04-16T22:41:37.797Z,10.34
2023-04-16T22:44:04.203Z,10.20
2023-04-16T22:46:30.974Z,10.31
2023-04-16T22:48:57.852Z,10.43
2023-04-16T22:51:24.478Z,10.45
2023-04-16T22:53:51.786Z,10.28
2023-04-16T22:56:19.689Z,10.26
2023-04-16T22:58:46.445Z,10.19
2023-04-16T23:01:12.952Z,10.35
2023-04-16T23:03:39.496Z,10.35
2023-04-16T23:06:06.647Z,10.44
2023-04-16T23:08:33.034Z,10.22
2023-04-16T23:10:59.444Z,10.18
2023-04-16T23:13:25.901Z,10.29
2023-04-16T23:15:52.395Z,10.29
2023-04-16T23:18:18.816Z,10.46
2023-04-16T23:20:45.222Z,10.36
2023-04-16T23:23:11.572Z,10.46
2023-04-16T23:25:41.048Z,10.48
2023-04-16T23:28:07.506Z,10.41
2023-04-16T23:30:33.870Z,10.30
2023-04-16T23:33:00.299Z,10.39
2023-04-16T23:35:26.712Z,10.36
2023-04-16T23:37:53.080Z,10.29
2023-04-16T23:40:19.459Z,10.43
2023-04-16T23:42:46.018Z,10.24
2023-04-16T23:45:12.418Z,10.42
2023-04-16T23:47:38.893Z,10.47
2023-04-16T23:50:06.130Z,10.49
2023-04-16T23:52:32.518Z,10.44
2023-04-16T23:54:58.893Z,10.45
2023-04-16T23:57:25.519Z,10.57
2023-04-16T23:59:51.893Z,10.39
